createdAt,value
2019-02-24T00:00:37.822Z,81.77
2019-02-24T00:01:38.012Z,81.96
2019-02-24T00:02:38.163Z,81.87
2019-02-24T00:03:38.330Z,82.06
2019-02-24T00:04:38.496Z,81.49
2019-02-24T00:05:38.670Z,81.21
2019-02-24T00:06:38.839Z,81.40
2019-02-24T00:07:38.999Z,81.77
2019-02-24T00:08:39.180Z,81.30
2019-02-24T00:09:39.346Z,81.68
2019-02-24T00:10:39.521Z,81.68
2019-02-24T00:11:39.690Z,81.68
2019-02-24T00:12:39.863Z,81.68
2019-02-24T00:13:40.034Z,81.68
2019-02-24T00:14:40.197Z,81.77
2019-02-24T00:15:40.382Z,81.87
2019-02-24T00:16:40.536Z,81.87
2019-02-24T00:17:40.705Z,81.59
2019-02-24T00:18:40.889Z,81.68
2019-02-24T00:19:41.047Z,81.96
2019-02-24T00:20:41.210Z,82.53
2019-02-24T00:21:41.386Z,82.34
2019-02-24T00:22:41.553Z,82.44
2019-02-24T00:23:41.727Z,82.63
2019-02-24T00:24:41.897Z,82.53
2019-02-24T00:25:42.067Z,82.40
2019-02-24T00:26:42.239Z,82.97
2019-02-24T00:27:42.411Z,83.34
2019-02-24T00:28:42.582Z,82.97
2019-02-24T00:29:42.751Z,82.68
2019-02-24T00:30:42.921Z,82.59
2019-02-24T00:31:43.092Z,82.68
2019-02-24T00:32:43.259Z,82.68
2019-02-24T00:33:43.431Z,82.78
2019-02-24T00:34:43.618Z,82.59
2019-02-24T00:35:43.780Z,82.59
2019-02-24T00:36:43.954Z,82.50
2019-02-24T00:37:44.103Z,82.87
2019-02-24T00:38:44.279Z,83.44
2019-02-24T00:39:44.451Z,82.97
2019-02-24T00:40:44.618Z,83.25
2019-02-24T00:41:44.785Z,82.97
2019-02-24T00:42:44.950Z,83.25
2019-02-24T00:43:45.127Z,83.15
2019-02-24T00:44:45.286Z,82.68
2019-02-24T00:45:45.470Z,82.87
2019-02-24T00:46:45.632Z,83.15
2019-02-24T00:47:45.805Z,82.97
2019-02-24T00:48:45.975Z,82.87
2019-02-24T00:49:46.142Z,83.44
2019-02-24T00:50:46.315Z,82.78
2019-02-24T00:51:46.487Z,82.50
2019-02-24T00:52:46.652Z,82.97
2019-02-24T00:53:46.824Z,82.68
2019-02-24T00:54:46.999Z,82.97
2019-02-24T00:55:47.164Z,83.25
2019-02-24T00:56:47.339Z,83.72
2019-02-24T00:57:47.505Z,83.25
2019-02-24T00:58:47.667Z,82.87
2019-02-24T00:59:47.838Z,82.68
2019-02-24T01:00:48.007Z,82.68
2019-02-24T01:01:48.185Z,82.50
2019-02-24T01:02:48.353Z,82.87
2019-02-24T01:03:48.513Z,82.40
2019-02-24T01:04:48.695Z,82.78
2019-02-24T01:05:48.854Z,82.78
2019-02-24T01:06:49.024Z,82.97
2019-02-24T01:07:49.197Z,83.15
2019-02-24T01:08:49.365Z,83.82
2019-02-24T01:09:49.533Z,83.34
2019-02-24T01:10:49.701Z,83.15
2019-02-24T01:11:49.881Z,83.63
2019-02-24T01:12:50.040Z,83.44
2019-02-24T01:13:50.222Z,84.01
2019-02-24T01:14:50.384Z,84.39
2019-02-24T01:15:50.549Z,84.39
2019-02-24T01:16:50.718Z,84.67
2019-02-24T01:17:50.896Z,84.77
2019-02-24T01:18:51.057Z,85.24
2019-02-24T01:19:51.237Z,85.14
2019-02-24T01:20:51.394Z,84.39
2019-02-24T01:21:51.561Z,84.29
2019-02-24T01:22:51.735Z,84.58
2019-02-24T01:23:51.907Z,84.20
2019-02-24T01:24:52.075Z,84.29
2019-02-24T01:25:52.258Z,84.39
2019-02-24T01:26:52.433Z,84.01
2019-02-24T01:27:52.592Z,84.20
2019-02-24T01:28:52.782Z,84.67
2019-02-24T01:29:52.923Z,84.77
2019-02-24T01:30:53.088Z,84.77
2019-02-24T01:31:53.265Z,84.86
2019-02-24T01:32:53.432Z,84.86
2019-02-24T01:33:53.595Z,85.05
2019-02-24T01:34:53.763Z,85.52
2019-02-24T01:35:53.944Z,85.24
2019-02-24T01:36:54.105Z,85.42
2019-02-24T01:37:54.280Z,85.61
2019-02-24T01:38:54.445Z,85.52
2019-02-24T01:39:54.622Z,85.14
2019-02-24T01:40:54.785Z,84.77
2019-02-24T01:41:54.955Z,84.95
2019-02-24T01:42:55.126Z,84.67
2019-02-24T01:43:55.295Z,84.58
2019-02-24T01:44:55.469Z,84.20
2019-02-24T01:45:55.637Z,84.01
2019-02-24T01:46:55.821Z,84.48
2019-02-24T01:47:55.981Z,84.77
2019-02-24T01:48:56.156Z,85.05
2019-02-24T01:49:56.332Z,84.95
2019-02-24T01:50:56.495Z,84.67
2019-02-24T01:51:56.667Z,85.71
2019-02-24T01:52:56.836Z,86.09
2019-02-24T01:53:57.002Z,86.75
2019-02-24T01:54:57.179Z,87.79
2019-02-24T01:55:57.348Z,88.64
2019-02-24T01:56:57.516Z,89.40
2019-02-24T01:57:57.693Z,89.12
2019-02-24T01:58:57.858Z,89.69
2019-02-24T01:59:58.024Z,88.83
2019-02-24T02:00:58.195Z,88.83
2019-02-24T02:01:58.357Z,88.64
2019-02-24T02:02:58.525Z,88.36
2019-02-24T02:03:58.702Z,87.79
2019-02-24T02:04:58.864Z,87.60
2019-02-24T02:05:59.031Z,86.94
2019-02-24T02:06:59.208Z,86.66
2019-02-24T02:07:59.380Z,86.47
2019-02-24T02:08:59.546Z,87.04
2019-02-24T02:09:59.716Z,86.75
2019-02-24T02:10:59.921Z,86.28
2019-02-24T02:12:00.060Z,86.28
2019-02-24T02:13:00.238Z,86.18
2019-02-24T02:14:00.399Z,86.18
2019-02-24T02:15:00.570Z,85.61
2019-02-24T02:16:00.738Z,85.90
2019-02-24T02:17:00.932Z,85.71
2019-02-24T02:18:01.078Z,85.71
2019-02-24T02:19:01.248Z,85.80
2019-02-24T02:20:01.427Z,85.99
2019-02-24T02:21:01.602Z,85.52
2019-02-24T02:22:01.761Z,85.61
2019-02-24T02:23:01.919Z,86.04
2019-02-24T02:24:02.087Z,86.33
2019-02-24T02:25:02.259Z,86.47
2019-02-24T02:26:02.438Z,85.80
2019-02-24T02:27:02.596Z,86.18
2019-02-24T02:28:02.767Z,85.99
2019-02-24T02:29:02.949Z,86.18
2019-02-24T02:30:03.123Z,86.47
2019-02-24T02:31:03.311Z,86.28
2019-02-24T02:32:03.460Z,86.56
2019-02-24T02:33:03.627Z,86.47
2019-02-24T02:34:03.801Z,85.42
2019-02-24T02:35:03.981Z,85.80
2019-02-24T02:36:04.139Z,85.61
2019-02-24T02:37:04.324Z,85.42
2019-02-24T02:38:04.487Z,85.61
2019-02-24T02:39:04.652Z,85.05
2019-02-24T02:40:04.826Z,85.14
2019-02-24T02:41:04.998Z,84.67
2019-02-24T02:42:05.160Z,85.05
2019-02-24T02:43:05.327Z,84.95
2019-02-24T02:44:05.497Z,84.86
2019-02-24T02:45:05.670Z,84.95
2019-02-24T02:46:05.837Z,84.95
2019-02-24T02:47:06.005Z,85.05
2019-02-24T02:48:06.199Z,84.95
2019-02-24T02:49:06.343Z,85.71
2019-02-24T02:50:06.518Z,85.61
2019-02-24T02:51:06.679Z,85.80
2019-02-24T02:52:06.854Z,85.80
2019-02-24T02:53:07.020Z,85.61
2019-02-24T02:54:07.199Z,85.90
2019-02-24T02:55:07.364Z,85.61
2019-02-24T02:56:07.531Z,85.90
2019-02-24T02:57:07.700Z,85.71
2019-02-24T02:58:07.877Z,86.09
2019-02-24T02:59:08.045Z,85.99
2019-02-24T03:00:08.210Z,86.66
2019-02-24T03:01:08.387Z,86.47
2019-02-24T03:03:08.712Z,86.56
2019-02-24T03:04:08.883Z,86.37
2019-02-24T03:05:09.062Z,86.37
2019-02-24T03:06:09.219Z,85.66
2019-02-24T03:07:09.386Z,85.85
2019-02-24T03:08:09.562Z,86.47
2019-02-24T03:09:09.729Z,86.66
2019-02-24T03:10:09.907Z,86.33
2019-02-24T03:11:10.069Z,86.04
2019-02-24T03:12:10.240Z,86.52
2019-02-24T03:13:10.427Z,86.04
2019-02-24T03:14:10.584Z,86.61
2019-02-24T03:15:10.755Z,86.33
2019-02-24T03:16:10.926Z,86.42
2019-02-24T03:17:11.095Z,86.52
2019-02-24T03:18:11.258Z,86.23
2019-02-24T03:19:11.429Z,86.23
2019-02-24T03:20:11.598Z,86.52
2019-02-24T03:21:11.766Z,86.42
2019-02-24T03:22:11.943Z,86.71
2019-02-24T03:23:12.105Z,86.23
2019-02-24T03:24:12.268Z,86.61
2019-02-24T03:25:12.444Z,86.42
2019-02-24T03:26:12.618Z,86.71
2019-02-24T03:27:12.786Z,86.71
2019-02-24T03:28:12.962Z,86.90
2019-02-24T03:29:13.136Z,86.71
2019-02-24T03:30:13.300Z,86.99
2019-02-24T03:31:13.495Z,86.99
2019-02-24T03:32:13.643Z,87.84
2019-02-24T03:33:13.814Z,87.46
2019-02-24T03:34:13.980Z,87.74
2019-02-24T03:35:14.142Z,87.27
2019-02-24T03:36:14.310Z,87.37
2019-02-24T03:37:14.487Z,87.08
2019-02-24T03:38:14.648Z,86.42
2019-02-24T03:39:14.818Z,86.80
2019-02-24T03:40:14.986Z,86.71
2019-02-24T03:41:15.150Z,86.71
2019-02-24T03:42:15.324Z,86.61
2019-02-24T03:43:15.496Z,86.42
2019-02-24T03:44:15.666Z,86.14
2019-02-24T03:45:15.835Z,86.61
2019-02-24T03:46:16.003Z,86.61
2019-02-24T03:47:16.183Z,86.42
2019-02-24T03:48:16.347Z,86.71
2019-02-24T03:49:16.516Z,86.80
2019-02-24T03:50:16.684Z,86.23
2019-02-24T03:51:16.853Z,86.42
2019-02-24T03:52:17.027Z,86.33
2019-02-24T03:53:17.199Z,86.23
2019-02-24T03:54:17.369Z,86.52
2019-02-24T03:55:17.539Z,85.85
2019-02-24T03:56:17.708Z,86.61
2019-02-24T03:57:17.878Z,86.52
2019-02-24T03:58:18.048Z,86.52
2019-02-24T03:59:18.215Z,86.71
2019-02-24T04:00:18.402Z,86.71
2019-02-24T04:01:18.574Z,86.80
2019-02-24T04:02:18.727Z,86.42
2019-02-24T04:03:18.888Z,86.52
2019-02-24T04:04:19.064Z,86.61
2019-02-24T04:05:19.239Z,85.95
2019-02-24T04:06:19.402Z,86.52
2019-02-24T04:07:19.571Z,86.71
2019-02-24T04:08:19.737Z,86.61
2019-02-24T04:09:19.936Z,86.80
2019-02-24T04:10:20.083Z,86.99
2019-02-24T04:11:20.249Z,86.90
2019-02-24T04:12:20.418Z,86.99
2019-02-24T04:13:20.585Z,86.71
2019-02-24T04:14:20.752Z,86.99
2019-02-24T04:15:20.923Z,86.71
2019-02-24T04:16:21.088Z,86.42
2019-02-24T04:17:21.262Z,86.61
2019-02-24T04:18:21.429Z,86.52
2019-02-24T04:19:21.601Z,86.42
2019-02-24T04:20:21.779Z,86.04
2019-02-24T04:21:21.943Z,86.52
2019-02-24T04:22:22.115Z,86.90
2019-02-24T04:23:22.286Z,87.65
2019-02-24T04:24:22.455Z,87.55
2019-02-24T04:25:22.624Z,86.90
2019-02-24T04:26:22.796Z,86.80
2019-02-24T04:27:22.967Z,86.71
2019-02-24T04:28:23.135Z,86.52
2019-02-24T04:29:25.195Z,86.42
2019-02-24T04:30:23.484Z,86.42
2019-02-24T04:31:23.651Z,86.71
2019-02-24T04:32:23.819Z,86.99
2019-02-24T04:33:23.989Z,86.99
2019-02-24T04:34:24.161Z,86.71
2019-02-24T04:35:24.328Z,86.52
2019-02-24T04:36:24.501Z,86.80
2019-02-24T04:37:24.671Z,86.90
2019-02-24T04:38:24.839Z,87.74
2019-02-24T04:39:25.020Z,87.74
2019-02-24T04:40:25.178Z,87.74
2019-02-24T04:41:25.350Z,88.41
2019-02-24T04:42:25.523Z,88.60
2019-02-24T04:43:25.692Z,87.84
2019-02-24T04:44:25.858Z,88.22
2019-02-24T04:45:26.039Z,88.03
2019-02-24T04:46:26.245Z,88.03
2019-02-24T04:47:26.364Z,88.36
2019-02-24T04:48:26.536Z,88.98
2019-02-24T04:49:26.703Z,88.60
2019-02-24T04:50:26.889Z,88.55
2019-02-24T04:51:27.049Z,89.50
2019-02-24T04:52:27.218Z,89.40
2019-02-24T04:53:27.389Z,89.22
2019-02-24T04:54:27.556Z,89.31
2019-02-24T04:55:27.728Z,88.84
2019-02-24T04:56:27.898Z,89.59
2019-02-24T04:57:28.067Z,89.78
2019-02-24T04:58:28.235Z,90.06
2019-02-24T04:59:35.074Z,90.39
2019-02-24T05:00:28.566Z,90.39
2019-02-24T05:01:28.740Z,90.11
2019-02-24T05:02:28.915Z,89.92
2019-02-24T05:03:29.074Z,89.83
2019-02-24T05:04:29.231Z,89.54
2019-02-24T05:05:29.404Z,88.79
2019-02-24T05:06:29.582Z,88.98
2019-02-24T05:07:29.737Z,89.07
2019-02-24T05:08:29.906Z,88.88
2019-02-24T05:09:30.076Z,88.98
2019-02-24T05:10:30.256Z,90.06
2019-02-24T05:11:30.418Z,91.20
2019-02-24T05:12:30.580Z,91.96
2019-02-24T05:13:30.763Z,91.77
2019-02-24T05:14:30.917Z,91.34
2019-02-24T05:15:31.094Z,91.53
2019-02-24T05:16:31.262Z,90.73
2019-02-24T05:17:31.422Z,90.39
2019-02-24T05:18:31.593Z,90.16
2019-02-24T05:19:31.772Z,90.54
2019-02-24T05:20:31.951Z,90.30
2019-02-24T05:21:32.104Z,90.30
2019-02-24T05:22:32.270Z,90.49
2019-02-24T05:23:32.440Z,91.15
2019-02-24T05:24:32.612Z,90.49
2019-02-24T05:25:32.782Z,90.20
2019-02-24T05:26:32.953Z,90.58
2019-02-24T05:27:33.124Z,90.11
2019-02-24T05:28:33.297Z,90.01
2019-02-24T05:29:33.461Z,90.01
2019-02-24T05:30:33.628Z,90.01
2019-02-24T05:31:33.797Z,89.83
2019-02-24T05:32:33.971Z,90.11
2019-02-24T05:33:34.154Z,90.39
2019-02-24T05:34:34.303Z,90.68
2019-02-24T05:35:34.469Z,89.92
2019-02-24T05:36:34.645Z,89.92
2019-02-24T05:37:34.818Z,89.92
2019-02-24T05:38:34.983Z,89.36
2019-02-24T05:39:35.154Z,89.17
2019-02-24T05:40:35.326Z,89.07
2019-02-24T05:41:35.489Z,89.17
2019-02-24T05:42:35.671Z,89.64
2019-02-24T05:43:35.828Z,89.54
2019-02-24T05:44:35.993Z,89.54
2019-02-24T05:45:36.168Z,89.54
2019-02-24T05:46:36.334Z,89.45
2019-02-24T05:47:36.526Z,89.54
2019-02-24T05:48:36.666Z,89.54
2019-02-24T05:49:36.833Z,89.26
2019-02-24T05:50:37.009Z,89.54
2019-02-24T05:51:37.171Z,89.54
2019-02-24T05:52:37.343Z,89.45
2019-02-24T05:53:37.511Z,89.73
2019-02-24T05:54:37.678Z,89.45
2019-02-24T05:55:37.850Z,89.54
2019-02-24T05:56:38.026Z,89.26
2019-02-24T05:57:38.189Z,89.54
2019-02-24T05:58:38.361Z,88.88
2019-02-24T05:59:38.530Z,89.73
2019-02-24T06:00:38.710Z,89.64
2019-02-24T06:01:38.870Z,89.45
2019-02-24T06:02:39.037Z,89.59
2019-02-24T06:03:39.212Z,89.36
2019-02-24T06:04:39.388Z,89.17
2019-02-24T06:05:39.539Z,89.36
2019-02-24T06:06:39.709Z,88.31
2019-02-24T06:07:39.875Z,88.60
2019-02-24T06:08:40.043Z,88.69
2019-02-24T06:09:40.212Z,88.84
2019-02-24T06:10:40.380Z,88.60
2019-02-24T06:11:40.550Z,88.98
2019-02-24T06:12:40.717Z,88.98
2019-02-24T06:13:41.433Z,88.88
2019-02-24T06:14:41.048Z,88.65
2019-02-24T06:15:41.226Z,89.31
2019-02-24T06:16:41.381Z,89.31
2019-02-24T06:17:41.554Z,89.50
2019-02-24T06:18:41.721Z,89.78
2019-02-24T06:19:41.888Z,89.87
2019-02-24T06:20:42.064Z,90.25
2019-02-24T06:21:42.230Z,89.59
2019-02-24T06:22:42.406Z,90.06
2019-02-24T06:23:42.570Z,89.69
2019-02-24T06:24:42.740Z,89.87
2019-02-24T06:25:42.920Z,89.78
2019-02-24T06:26:43.092Z,89.69
2019-02-24T06:27:43.252Z,89.50
2019-02-24T06:28:43.426Z,89.50
2019-02-24T06:29:43.588Z,89.22
2019-02-24T06:30:43.758Z,89.59
2019-02-24T06:31:43.927Z,89.78
2019-02-24T06:32:44.094Z,90.63
2019-02-24T06:33:44.263Z,90.16
2019-02-24T06:34:44.444Z,90.16
2019-02-24T06:35:44.607Z,90.16
2019-02-24T06:36:44.771Z,89.97
2019-02-24T06:37:44.942Z,89.87
2019-02-24T06:38:45.117Z,90.54
2019-02-24T06:39:45.282Z,90.63
2019-02-24T06:40:45.460Z,90.25
2019-02-24T06:41:45.630Z,90.06
2019-02-24T06:42:45.794Z,90.63
2019-02-24T06:43:45.957Z,90.54
2019-02-24T06:44:46.129Z,91.10
2019-02-24T06:45:46.294Z,90.91
2019-02-24T06:46:46.465Z,91.39
2019-02-24T06:47:46.637Z,91.39
2019-02-24T06:48:46.809Z,90.91
2019-02-24T06:49:46.983Z,90.73
2019-02-24T06:50:47.153Z,90.58
2019-02-24T06:51:47.319Z,90.30
2019-02-24T06:52:47.498Z,89.83
2019-02-24T06:53:47.656Z,88.79
2019-02-24T06:54:47.831Z,87.60
2019-02-24T06:55:47.991Z,86.28
2019-02-24T06:56:48.168Z,85.80
2019-02-24T06:57:48.345Z,84.71
2019-02-24T06:58:48.531Z,82.91
2019-02-24T06:59:48.676Z,81.59
2019-02-24T07:00:48.837Z,80.83
2019-02-24T07:01:49.008Z,80.02
2019-02-24T07:02:49.178Z,79.93
2019-02-24T07:03:49.348Z,78.41
2019-02-24T07:04:49.521Z,77.59
2019-02-24T07:05:49.688Z,76.55
2019-02-24T07:06:49.853Z,75.98
2019-02-24T07:07:50.031Z,75.32
2019-02-24T07:08:50.202Z,74.85
2019-02-24T07:09:50.373Z,74.22
2019-02-24T07:10:50.548Z,74.51
2019-02-24T07:11:50.717Z,74.03
2019-02-24T07:12:50.894Z,73.84
2019-02-24T07:13:51.062Z,74.41
2019-02-24T07:14:51.233Z,74.79
2019-02-24T07:15:51.405Z,74.41
2019-02-24T07:16:51.579Z,73.94
2019-02-24T07:17:51.756Z,74.03
2019-02-24T07:18:51.922Z,73.65
2019-02-24T07:19:52.091Z,72.89
2019-02-24T07:20:52.265Z,72.33
2019-02-24T07:21:52.438Z,72.74
2019-02-24T07:22:52.611Z,71.60
2019-02-24T07:23:52.787Z,71.60
2019-02-24T07:24:52.962Z,70.75
2019-02-24T07:25:53.134Z,71.38
2019-02-24T07:26:53.305Z,71.28
2019-02-24T07:27:53.480Z,71.38
2019-02-24T07:28:53.654Z,72.52
2019-02-24T07:29:53.826Z,72.48
2019-02-24T07:30:53.999Z,73.33
2019-02-24T07:31:54.184Z,74.56
2019-02-24T07:32:54.348Z,74.81
2019-02-24T07:33:54.520Z,75.47
2019-02-24T07:34:54.706Z,76.51
2019-02-24T07:35:54.871Z,76.89
2019-02-24T07:36:55.045Z,77.46
2019-02-24T07:37:55.219Z,78.69
2019-02-24T07:38:55.390Z,79.79
2019-02-24T07:39:55.562Z,80.07
2019-02-24T07:40:55.749Z,80.17
2019-02-24T07:41:55.910Z,80.07
2019-02-24T07:42:56.087Z,80.07
2019-02-24T07:43:56.256Z,80.55
2019-02-24T07:44:56.428Z,80.26
2019-02-24T07:45:56.597Z,81.12
2019-02-24T07:46:56.780Z,80.64
2019-02-24T07:47:56.942Z,80.64
2019-02-24T07:48:57.118Z,80.55
2019-02-24T07:49:57.282Z,80.45
2019-02-24T07:50:57.460Z,80.55
2019-02-24T07:51:57.637Z,80.96
2019-02-24T07:52:57.803Z,80.30
2019-02-24T07:53:57.976Z,80.02
2019-02-24T07:54:58.145Z,78.73
2019-02-24T07:55:58.324Z,77.25
2019-02-24T07:56:58.486Z,76.03
2019-02-24T07:57:58.659Z,74.16
2019-02-24T07:58:58.834Z,72.93
2019-02-24T07:59:59.006Z,72.17
2019-02-24T08:00:59.178Z,71.07
2019-02-24T08:01:59.353Z,69.93
2019-02-24T08:02:59.521Z,69.02
2019-02-24T08:03:59.703Z,67.40
2019-02-24T08:04:59.866Z,66.74
2019-02-24T08:06:00.042Z,65.50
2019-02-24T08:07:00.216Z,64.78
2019-02-24T08:08:00.385Z,63.92
2019-02-24T08:09:00.561Z,63.45
2019-02-24T08:10:00.733Z,63.73
2019-02-24T08:11:00.905Z,63.23
2019-02-24T08:12:01.084Z,63.45
2019-02-24T08:13:01.254Z,62.97
2019-02-24T08:14:01.442Z,62.69
2019-02-24T08:15:01.625Z,62.24
2019-02-24T08:16:01.793Z,61.20
2019-02-24T08:17:01.969Z,61.01
2019-02-24T08:18:02.145Z,60.35
2019-02-24T08:19:02.331Z,59.80
2019-02-24T08:20:02.495Z,59.71
2019-02-24T08:21:02.805Z,59.33
2019-02-24T08:22:02.877Z,59.52
2019-02-24T08:23:03.019Z,58.95
2019-02-24T08:24:03.196Z,58.57
2019-02-24T08:25:03.391Z,59.05
2019-02-24T08:26:03.544Z,58.85
2019-02-24T08:27:03.721Z,58.57
2019-02-24T08:28:03.897Z,58.95
2019-02-24T08:29:04.078Z,58.95
2019-02-24T08:30:04.271Z,58.03
2019-02-24T08:31:04.427Z,57.14
2019-02-24T08:32:04.603Z,56.95
2019-02-24T08:33:04.794Z,57.71
2019-02-24T08:34:04.955Z,60.16
2019-02-24T08:35:05.142Z,59.87
2019-02-24T08:36:05.315Z,60.16
2019-02-24T08:37:05.501Z,59.80
2019-02-24T08:38:05.668Z,59.30
2019-02-24T08:39:05.845Z,59.77
2019-02-24T08:40:06.032Z,59.87
2019-02-24T08:41:06.242Z,59.87
2019-02-24T08:42:06.373Z,60.35
2019-02-24T08:43:06.546Z,60.06
2019-02-24T08:44:06.727Z,59.61
2019-02-24T08:45:06.901Z,59.01
2019-02-24T08:46:07.082Z,58.25
2019-02-24T08:47:07.255Z,58.63
2019-02-24T08:48:07.428Z,58.57
2019-02-24T08:49:07.608Z,57.74
2019-02-24T08:50:07.791Z,57.26
2019-02-24T08:51:07.966Z,56.70
2019-02-24T08:52:08.141Z,56.51
2019-02-24T08:53:08.321Z,56.70
2019-02-24T08:54:08.498Z,56.51
2019-02-24T08:55:08.682Z,56.05
2019-02-24T08:56:08.858Z,55.20
2019-02-24T08:57:09.036Z,54.44
2019-02-24T08:58:09.229Z,53.42
2019-02-24T08:59:09.393Z,53.61
2019-02-24T09:00:09.585Z,52.94
2019-02-24T09:01:09.758Z,52.47
2019-02-24T09:02:09.944Z,53.16
2019-02-24T09:03:10.111Z,52.11
2019-02-24T09:04:10.288Z,52.78
2019-02-24T09:05:10.464Z,52.49
2019-02-24T09:06:10.660Z,51.64
2019-02-24T09:07:10.814Z,51.54
2019-02-24T09:08:10.991Z,51.45
2019-02-24T09:09:11.171Z,51.51
2019-02-24T09:10:11.349Z,51.51
2019-02-24T09:11:11.529Z,51.54
2019-02-24T09:12:11.709Z,51.25
2019-02-24T09:13:11.888Z,49.92
2019-02-24T09:14:12.070Z,49.54
2019-02-24T09:15:12.246Z,49.54
2019-02-24T09:16:12.436Z,49.06
2019-02-24T09:17:12.604Z,48.87
2019-02-24T09:18:12.788Z,47.85
2019-02-24T09:19:12.958Z,47.63
2019-02-24T09:20:13.149Z,47.37
2019-02-24T09:21:13.314Z,46.34
2019-02-24T09:22:13.504Z,45.39
2019-02-24T09:23:13.685Z,45.29
2019-02-24T09:24:13.865Z,45.35
2019-02-24T09:25:14.046Z,45.99
2019-02-24T09:26:14.225Z,47.32
2019-02-24T09:27:14.408Z,47.04
2019-02-24T09:28:14.584Z,47.47
2019-02-24T09:29:14.762Z,48.96
2019-02-24T09:30:14.940Z,50.04
2019-02-24T09:31:15.121Z,49.30
2019-02-24T09:32:15.298Z,47.13
2019-02-24T09:33:15.477Z,45.15
2019-02-24T09:34:15.663Z,43.16
2019-02-24T09:35:15.850Z,42.77
2019-02-24T09:36:16.035Z,41.94
2019-02-24T09:37:16.198Z,41.08
2019-02-24T09:38:16.374Z,41.17
2019-02-24T09:39:16.555Z,41.10
2019-02-24T09:40:16.739Z,40.81
2019-02-24T09:41:16.924Z,40.83
2019-02-24T09:42:17.095Z,39.98
2019-02-24T09:43:17.280Z,40.57
2019-02-24T09:44:17.458Z,40.36
2019-02-24T09:45:17.635Z,41.22
2019-02-24T09:46:17.807Z,41.29
2019-02-24T09:47:17.988Z,41.29
2019-02-24T09:48:18.171Z,41.22
2019-02-24T09:49:18.360Z,40.55
2019-02-24T09:50:18.533Z,40.28
2019-02-24T09:51:18.709Z,39.61
2019-02-24T09:52:18.893Z,39.02
2019-02-24T09:53:19.062Z,38.64
2019-02-24T09:54:19.254Z,38.56
2019-02-24T09:55:19.435Z,38.76
2019-02-24T09:56:19.614Z,39.04
2019-02-24T09:57:19.803Z,38.18
2019-02-24T09:58:19.979Z,37.99
2019-02-24T09:59:20.163Z,38.49
2019-02-24T10:00:21.932Z,37.92
2019-02-24T10:01:20.526Z,37.55
2019-02-24T10:02:20.713Z,37.46
2019-02-24T10:03:20.886Z,36.90
2019-02-24T10:04:21.068Z,36.61
2019-02-24T10:05:21.243Z,35.86
2019-02-24T10:06:21.434Z,35.37
2019-02-24T10:07:21.619Z,35.20
2019-02-24T10:08:21.792Z,34.83
2019-02-24T10:09:21.980Z,33.97
2019-02-24T10:10:22.149Z,32.92
2019-02-24T10:11:22.342Z,32.46
2019-02-24T10:12:22.519Z,31.96
2019-02-24T10:13:22.710Z,32.33
2019-02-24T10:14:22.885Z,31.76
2019-02-24T10:15:23.067Z,31.85
2019-02-24T10:16:23.253Z,31.96
2019-02-24T10:17:23.437Z,31.69
2019-02-24T10:18:23.613Z,32.17
2019-02-24T10:19:23.795Z,31.67
2019-02-24T10:20:23.981Z,31.40
2019-02-24T10:21:24.165Z,30.05
2019-02-24T10:22:24.366Z,30.06
2019-02-24T10:23:24.557Z,30.54
2019-02-24T10:24:24.735Z,30.05
2019-02-24T10:25:24.903Z,31.02
2019-02-24T10:26:25.085Z,31.50
2019-02-24T10:27:25.281Z,31.30
2019-02-24T10:28:25.454Z,32.14
2019-02-24T10:29:25.642Z,32.90
2019-02-24T10:30:25.813Z,31.87
2019-02-24T10:31:25.997Z,30.83
2019-02-24T10:32:26.181Z,29.88
2019-02-24T10:33:26.361Z,29.57
2019-02-24T10:34:26.541Z,30.22
2019-02-24T10:35:26.734Z,30.91
2019-02-24T10:36:26.904Z,31.56
2019-02-24T10:37:27.083Z,32.12
2019-02-24T10:38:27.261Z,32.79
2019-02-24T10:39:29.854Z,32.76
2019-02-24T10:40:27.629Z,33.91
2019-02-24T10:41:28.055Z,34.77
2019-02-24T10:42:27.974Z,35.83
2019-02-24T10:43:28.153Z,35.74
2019-02-24T10:44:28.336Z,35.66
2019-02-24T10:45:28.546Z,35.39
2019-02-24T10:46:28.694Z,34.43
2019-02-24T10:47:28.875Z,33.28
2019-02-24T10:48:29.057Z,33.09
2019-02-24T10:49:29.245Z,33.76
2019-02-24T10:50:29.423Z,33.57
2019-02-24T10:51:29.603Z,33.40
2019-02-24T10:52:30.720Z,33.11
2019-02-24T10:53:29.960Z,32.44
2019-02-24T10:54:30.149Z,31.20
2019-02-24T10:55:30.325Z,31.27
2019-02-24T10:56:30.505Z,31.29
2019-02-24T10:57:30.696Z,31.01
2019-02-24T10:58:34.638Z,31.10
2019-02-24T10:59:31.053Z,31.58
2019-02-24T11:00:31.229Z,32.81
2019-02-24T11:01:31.426Z,32.98
2019-02-24T11:02:31.599Z,33.07
2019-02-24T11:03:31.779Z,32.71
2019-02-24T11:04:31.964Z,32.33
2019-02-24T11:05:32.152Z,31.67
2019-02-24T11:06:32.321Z,31.58
2019-02-24T11:07:32.503Z,31.56
2019-02-24T11:08:32.683Z,31.07
2019-02-24T11:09:32.868Z,31.26
2019-02-24T11:10:33.047Z,31.07
2019-02-24T11:11:33.235Z,30.30
2019-02-24T11:12:33.418Z,30.99
2019-02-24T11:13:33.768Z,30.99
2019-02-24T11:14:33.779Z,31.18
2019-02-24T11:15:33.962Z,31.37
2019-02-24T11:16:34.143Z,31.29
2019-02-24T11:17:34.342Z,30.70
2019-02-24T11:18:34.513Z,31.02
2019-02-24T11:19:34.702Z,29.68
2019-02-24T11:20:34.888Z,29.58
2019-02-24T11:21:35.065Z,29.20
2019-02-24T11:22:35.258Z,29.22
2019-02-24T11:23:35.427Z,28.83
2019-02-24T11:24:35.614Z,28.83
2019-02-24T11:25:35.800Z,29.77
2019-02-24T11:26:35.974Z,31.29
2019-02-24T11:27:36.159Z,31.87
2019-02-24T11:28:36.342Z,31.90
2019-02-24T11:29:36.525Z,31.53
2019-02-24T11:30:36.711Z,30.49
2019-02-24T11:31:38.597Z,29.72
2019-02-24T11:32:37.067Z,29.06
2019-02-24T11:33:37.254Z,28.59
2019-02-24T11:34:37.445Z,28.20
2019-02-24T11:35:37.636Z,27.92
2019-02-24T11:36:37.815Z,28.30
2019-02-24T11:37:37.992Z,28.38
2019-02-24T11:38:38.184Z,29.50
2019-02-24T11:39:38.372Z,30.08
2019-02-24T11:40:38.545Z,30.84
2019-02-24T11:41:38.785Z,31.23
2019-02-24T11:42:38.911Z,31.71
2019-02-24T11:43:39.096Z,32.86
2019-02-24T11:44:39.277Z,32.87
2019-02-24T11:45:39.461Z,31.66
2019-02-24T11:46:39.652Z,31.27
2019-02-24T11:47:39.837Z,30.33
2019-02-24T11:48:40.018Z,29.85
2019-02-24T11:49:40.207Z,30.23
2019-02-24T11:50:40.390Z,31.08
2019-02-24T11:51:40.578Z,31.61
2019-02-24T11:52:40.760Z,33.14
2019-02-24T11:53:40.946Z,32.87
2019-02-24T11:54:41.129Z,32.62
2019-02-24T11:55:41.313Z,31.63
2019-02-24T11:56:41.498Z,32.78
2019-02-24T11:57:41.706Z,32.39
2019-02-24T11:58:41.882Z,32.41
2019-02-24T11:59:42.063Z,31.75
2019-02-24T12:00:42.241Z,31.66
2019-02-24T12:01:47.588Z,32.10
2019-02-24T12:02:42.621Z,32.12
2019-02-24T12:03:42.779Z,31.08
2019-02-24T12:04:42.981Z,30.54
2019-02-24T12:05:43.162Z,30.05
2019-02-24T12:06:43.351Z,28.82
2019-02-24T12:07:43.528Z,28.45
2019-02-24T12:08:43.715Z,27.50
2019-02-24T12:09:43.912Z,27.01
2019-02-24T12:10:44.099Z,27.40
2019-02-24T12:11:44.274Z,27.02
2019-02-24T12:12:44.465Z,26.53
2019-02-24T12:13:44.645Z,26.54
2019-02-24T12:14:44.833Z,25.95
2019-02-24T12:15:45.018Z,26.23
2019-02-24T12:16:45.208Z,27.17
2019-02-24T12:17:45.393Z,27.26
2019-02-24T12:18:45.573Z,27.82
2019-02-24T12:19:45.761Z,28.45
2019-02-24T12:20:45.949Z,30.36
2019-02-24T12:21:46.128Z,31.04
2019-02-24T12:22:46.312Z,31.37
2019-02-24T12:23:46.500Z,32.54
2019-02-24T12:24:46.680Z,32.54
2019-02-24T12:25:46.877Z,33.00
2019-02-24T12:26:47.057Z,32.90
2019-02-24T12:27:47.252Z,32.89
2019-02-24T12:28:47.436Z,33.15
2019-02-24T12:29:47.620Z,34.20
2019-02-24T12:30:47.793Z,34.59
2019-02-24T12:31:56.187Z,34.30
2019-02-24T12:32:48.175Z,34.30
2019-02-24T12:33:48.351Z,33.73
2019-02-24T12:34:48.531Z,34.38
2019-02-24T12:35:48.709Z,34.57
2019-02-24T12:36:48.887Z,35.16
2019-02-24T12:37:49.076Z,34.13
2019-02-24T12:38:49.265Z,33.27
2019-02-24T12:39:49.438Z,32.60
2019-02-24T12:40:49.623Z,31.45
2019-02-24T12:41:49.796Z,31.64
2019-02-24T12:42:49.995Z,31.84
2019-02-24T12:43:50.171Z,31.45
2019-02-24T12:44:50.352Z,31.45
2019-02-24T12:45:50.542Z,31.66
2019-02-24T12:46:50.732Z,31.55
2019-02-24T12:47:50.913Z,31.64
2019-02-24T12:48:51.078Z,32.37
2019-02-24T12:49:51.253Z,33.14
2019-02-24T12:50:51.439Z,33.44
2019-02-24T12:51:51.610Z,32.87
2019-02-24T12:52:51.795Z,33.25
2019-02-24T12:53:51.968Z,32.89
2019-02-24T12:54:52.154Z,32.79
2019-02-24T12:55:52.337Z,32.31